Miami International Airport
KMIA : now visible

Airfield :











YOU CAN JOIN US ON...

 
LOGIN :

Register | Disclaimer

   EN    FR    IT 

 









Legend :    VFR   Marginal VFR   IFR   Intensive IFR   Very Intensive IFR
Visi :
Ceiling :
>= 8 km
>= 3000ft
5 to 8 km
1000 to 3000 ft
1500m to 5 km
500 to 1000 ft
800 to 1500m
200 to 500 ft
< 800m
< 200 ft
Symbols :   Thunderstorms  Fog  Heavy snow  Heavy precipitations  Wind > 20 kt






- Airport Elevation : 8 ft
- IATA code : MIA


KMIA - Miami International

CURRENT METAR :
  • 221153Z 04006KT 6SM -RA BR FEW020CB SCT060 OVC110 23/22 A2995 RMK AO2 RAB1059 SLP141 CB N-NE MOV W P0001 60002 70166 T02330222 10256 20228 51013 $

EXPIRED METARs :
  • 221053Z 06010G16KT 10SM SCT020CB BKN060 BKN100 OVC150 23/22 A2994 RMK AO2 SLP139 CB NW-NE-E MOV NW T02330217 $
  • 220953Z 03004KT 10SM SCT027 BKN040 BKN120 25/23 A2992 RMK AO2 SLP131 T02500233 $

TAF KMIA
Valid from the 22 at 12:00 until the 23 at 18:00 UTC


221140Z 2212/2318 07010KT P6SM VCSH FEW015 SCT025 BKN100
TEMPO 2212/2213 VRB15G25KT 3SM SHRA SCT015 BKN025
FM221300 09012KT P6SM VCSH SCT025 SCT100
FM221800 10015KT P6SM VCSH SCT025 BKN050
FM230200 10010KT P6SM SCT030 BKN080
FM231500 10011KT P6SM VCSH SCT025 BKN050
KZMA FIR / North America



MET'MAP, your aeronautical weather chart ! - Copyright ORBIFLY December 2007 - Disclaimer

ORBIFLY MET'MAP TEAM :

Programming & Development : Alexandra Zaïnal
Concept & original design : Baudouin d'Aumeries
Assistance for programming : Marc-Olivier Méhu
Technical & hardware support : Manuel Goepfert

Contact : metmap@orbifly.com




SOURCES & CREDITS :

   NOAA       Earth
Advisory